MDT,Max TemperatureF,Mean TemperatureF,Min TemperatureF,Max Dew PointF,MeanDew PointF,Min DewpointF,Max Humidity, Mean Humidity, Min Humidity, Max Sea Level PressureIn, Mean Sea Level PressureIn, Min Sea Level PressureIn, Max VisibilityMiles, Mean VisibilityMiles, Min VisibilityMiles, Max Wind SpeedMPH, Mean Wind SpeedMPH, Max Gust SpeedMPH,PrecipitationIn, CloudCover, Events, WindDirDegrees
2013-8-1,88,74,60,59,52,44,72,47,22,30.13,29.93,29.73,10,10,2,29,8,33,0.37,2,Rain-Thunderstorm,107
2013-8-2,84,71,58,62,58,54,93,71,48,30.01,29.90,29.72,10,10,3,23,6,29,0.00,3,Rain-Thunderstorm,96
2013-8-3,83,71,59,63,58,55,97,70,42,30.17,30.04,29.90,10,10,10,31,11,40,T,4,Thunderstorm,126
2013-8-4,86,73,59,63,61,56,100,68,35,30.12,29.99,29.86,10,10,7,21,6,24,0.01,4,Rain-Thunderstorm,84
2013-8-5,88,72,55,63,57,43,100,62,23,30.10,29.94,29.77,10,8,0,18,6,23,0.11,4,Fog-Rain-Thunderstorm,239
2013-8-6,80,67,53,53,49,46,93,63,32,30.01,29.92,29.83,10,10,10,17,6,24,0.00,0,,337
2013-8-7,85,68,50,54,51,48,96,64,31,30.02,29.94,29.84,10,10,10,20,6,24,0.00,1,Thunderstorm,126
2013-8-8,81,69,57,56,52,49,80,57,33,30.13,29.97,29.93,10,10,10,16,8,21,0.00,1,Thunderstorm,108
2013-8-9,80,68,55,60,52,46,87,62,36,30.18,30.08,30.00,10,10,2,21,7,25,0.21,3,Rain-Thunderstorm,97
2013-8-10,86,71,56,57,51,44,86,56,25,30.12,30.01,29.92,10,10,10,28,8,33,0.00,1,Thunderstorm,167
2013-8-11,88,71,53,56,48,39,86,52,18,30.07,30.00,29.94,10,10,10,30,9,37,0.02,0,Rain-Thunderstorm,157
2013-8-12,88,72,55,57,49,44,77,50,23,30.13,30.02,29.97,10,10,10,21,6,25,0.02,0,Rain-Thunderstorm,132
2013-8-13,85,69,53,61,53,48,93,62,31,30.21,30.09,29.99,10,10,2,24,6,33,0.25,3,Rain-Thunderstorm,192
2013-8-14,84,70,56,56,50,46,86,57,27,30.09,30.00,29.93,10,10,9,24,6,28,T,1,Rain-Thunderstorm,184
2013-8-15,85,68,51,52,48,42,86,55,23,30.03,29.99,29.96,10,10,10,17,6,22,0.00,0,,35
2013-8-16,94,77,59,57,48,31,90,51,11,29.99,29.94,29.90,10,10,10,20,9,25,0.00,0,,155
2013-8-17,95,77,58,56,47,34,72,42,12,29.92,29.88,29.84,10,10,10,16,7,20,0.00,0,,141
2013-8-18,91,75,58,60,53,46,80,52,23,30.04,29.91,29.86,10,10,10,24,7,30,T,0,Thunderstorm,248
2013-8-19,94,75,55,60,52,46,80,50,20,29.94,29.87,29.79,10,10,10,17,6,21,0.00,0,,163
2013-8-20,89,73,56,57,50,44,86,54,22,29.88,29.84,29.79,10,10,10,13,4,16,0.00,0,,34
2013-8-21,89,75,60,53,49,46,60,43,25,29.99,29.91,29.82,10,10,10,17,8,22,0.00,0,,228
2013-8-22,87,75,63,58,54,52,67,49,31,30.08,29.98,29.89,10,10,10,24,12,36,T,1,Thunderstorm,149
2013-8-23,93,79,65,60,53,45,81,51,20,29.91,29.78,29.68,10,10,10,24,10,35,0.00,1,Thunderstorm,159
2013-8-24,88,74,59,54,51,48,72,50,27,29.92,29.80,29.68,10,10,10,20,7,26,0.00,2,,257
2013-8-25,91,73,55,56,49,43,86,53,19,29.97,29.91,29.85,10,10,10,18,8,23,0.00,1,,187
2013-8-26,92,81,69,51,47,43,49,34,19,29.88,29.86,29.84,10,10,10,25,10,32,0.00,2,,229
2013-8-27,89,76,63,52,49,46,58,41,24,29.95,29.89,29.84,10,10,10,16,7,21,0.00,0,,357
2013-8-28,97,78,59,56,49,41,84,50,16,29.97,29.86,29.79,10,10,10,24,9,29,0.00,0,,203
2013-8-29,91,78,64,51,47,40,63,40,17,30.03,29.97,29.87,10,10,10,18,7,22,0.00,0,,335
2013-8-30,95,79,62,51,45,38,52,33,14,30.00,29.92,29.83,10,10,10,17,6,23,0.00,0,,257
2013-8-31,82,66,49,56,45,39,78,52,25,30.08,29.97,29.83,10,10,10,23,9,29,0.00,0,,340